Time;durP1;ratioP1;P1;durP2;ratioP2;P2;SDS_P1;SDS_P2;PMS_P1;PMS_P2;Temp;Humidity;BMP_temperature;BMP_pressure;BME280_temperature;BME280_humidity;BME280_pressure;Samples;Min_cycle;Max_cycle;Signal;HPM_P1;HPM_P2
2023/01/30 00:01:05;;;;;;;16.65;7.80;;;;;;;;;;5096287;28;20099;-81
2023/01/30 00:03:31;;;;;;;15.93;8.02;;;;;;;;;;5114270;28;20031;-81
2023/01/30 00:05:57;;;;;;;23.50;9.93;;;;;;;;;;5114154;28;20458;-81
2023/01/30 00:08:22;;;;;;;24.85;10.85;;;;;;;;;;5114244;28;20114;-81
2023/01/30 00:10:48;;;;;;;29.23;11.95;;;;;;;;;;5114389;28;20039;-81
2023/01/30 00:13:14;;;;;;;23.05;10.20;;;;;;;;;;5118740;28;20032;-81
2023/01/30 00:15:40;;;;;;;20.05;9.32;;;;;;;;;;5120812;28;20028;-81
2023/01/30 00:18:06;;;;;;;22.42;9.85;;;;;;;;;;5119996;28;20035;-82
2023/01/30 00:20:32;;;;;;;17.70;8.57;;;;;;;;;;5119699;28;20058;-81
2023/01/30 00:22:58;;;;;;;21.05;9.13;;;;;;;;;;5101965;28;20408;-81
2023/01/30 00:25:24;;;;;;;15.27;7.57;;;;;;;;;;5114305;28;20038;-80
2023/01/30 00:27:50;;;;;;;18.10;8.23;;;;;;;;;;5095907;28;20165;-82
2023/01/30 00:30:16;;;;;;;17.02;8.38;;;;;;;;;;5096380;28;20063;-81
2023/01/30 00:32:41;;;;;;;17.20;8.07;;;;;;;;;;5095529;28;20031;-81
2023/01/30 00:35:07;;;;;;;19.13;7.97;;;;;;;;;;5095337;28;20080;-81
2023/01/30 00:37:32;;;;;;;15.93;7.82;;;;;;;;;;5078489;28;20042;-81
2023/01/30 00:39:58;;;;;;;17.48;8.13;;;;;;;;;;5095122;28;20058;-80
2023/01/30 00:47:55;;;;;;;14.43;6.82;;;;;;;;;;5114190;28;20030;-80
2023/01/30 00:50:20;;;;;;;17.73;6.82;;;;;;;;;;5095528;28;20110;-80
2023/01/30 00:52:46;;;;;;;13.75;6.55;;;;;;;;;;5113523;28;20529;-80
2023/01/30 00:55:11;;;;;;;12.98;6.43;;;;;;;;;;5095574;28;20096;-82
2023/01/30 00:57:37;;;;;;;13.25;6.90;;;;;;;;;;5098855;28;20037;-82
2023/01/30 01:00:04;;;;;;;14.00;6.65;;;;;;;;;;5117548;28;20039;-81
2023/01/30 01:02:30;;;;;;;14.60;6.68;;;;;;;;;;5099818;28;20441;-81
2023/01/30 01:04:57;;;;;;;16.30;7.03;;;;;;;;;;5099379;28;20126;-81
2023/01/30 01:07:22;;;;;;;16.92;6.80;;;;;;;;;;5118076;28;20110;-81
2023/01/30 01:09:48;;;;;;;11.40;5.72;;;;;;;;;;5099300;28;20036;-81
2023/01/30 01:12:13;;;;;;;13.15;6.00;;;;;;;;;;5117150;28;20452;-81
2023/01/30 01:14:39;;;;;;;11.77;5.53;;;;;;;;;;5099109;28;20046;-81
2023/01/30 01:17:04;;;;;;;14.95;6.70;;;;;;;;;;5099346;28;20028;-81
2023/01/30 01:19:30;;;;;;;12.85;6.05;;;;;;;;;;5099244;28;20549;-81
2023/01/30 01:21:55;;;;;;;21.70;7.30;;;;;;;;;;5099243;28;20038;-81
2023/01/30 01:24:20;;;;;;;132.95;25.92;;;;;;;;;;5098807;28;20407;-81
2023/01/30 01:26:46;;;;;;;125.03;24.17;;;;;;;;;;5099271;28;20122;-81
2023/01/30 01:29:14;;;;;;;56.13;14.77;;;;;;;;;;5116796;28;20093;-81
2023/01/30 01:31:39;;;;;;;39.83;11.73;;;;;;;;;;5082248;28;20028;-81
2023/01/30 01:34:05;;;;;;;25.45;8.95;;;;;;;;;;5117240;28;20039;-81
2023/01/30 01:36:30;;;;;;;18.73;7.25;;;;;;;;;;5117426;28;20023;-81
2023/01/30 01:38:56;;;;;;;14.98;6.43;;;;;;;;;;5082241;28;20403;-81
2023/01/30 01:41:22;;;;;;;16.88;6.68;;;;;;;;;;5116910;28;20035;-81
2023/01/30 01:44:00;;;;;;;12.48;5.97;;;;;;;;;;5098989;28;20027;-81
2023/01/30 01:46:51;;;;;;;14.38;6.40;;;;;;;;;;5098741;28;20028;-81
2023/01/30 01:49:25;;;;;;;13.30;6.13;;;;;;;;;;5116975;28;20031;-81
2023/01/30 01:51:56;;;;;;;13.32;6.35;;;;;;;;;;5098995;28;20046;-81
2023/01/30 01:54:31;;;;;;;13.98;6.00;;;;;;;;;;5116861;28;20103;-82
2023/01/30 01:57:01;;;;;;;12.98;5.75;;;;;;;;;;5116878;28;20032;-81
2023/01/30 01:59:51;;;;;;;13.02;5.93;;;;;;;;;;5117156;28;20035;-81
2023/01/30 02:02:17;;;;;;;16.90;7.35;;;;;;;;;;5080897;28;20108;-81
2023/01/30 02:05:02;;;;;;;15.38;6.10;;;;;;;;;;5098080;28;20547;-80
2023/01/30 02:07:49;;;;;;;14.80;6.53;;;;;;;;;;5116075;28;20024;-81
2023/01/30 02:10:18;;;;;;;15.00;6.97;;;;;;;;;;5098274;28;20027;-81
2023/01/30 02:12:46;;;;;;;11.60;6.15;;;;;;;;;;5098513;28;20036;-81
2023/01/30 02:15:12;;;;;;;19.33;8.25;;;;;;;;;;5098078;28;20118;-81
2023/01/30 02:17:38;;;;;;;15.30;6.90;;;;;;;;;;5097871;28;20087;-81
2023/01/30 02:20:22;;;;;;;12.68;6.25;;;;;;;;;;5097961;28;20470;-81
2023/01/30 02:23:24;;;;;;;15.05;6.47;;;;;;;;;;5097749;28;20042;-80
2023/01/30 02:25:53;;;;;;;16.27;6.47;;;;;;;;;;5098113;28;20039;-80
2023/01/30 02:28:47;;;;;;;242.15;72.97;;;;;;;;;;5098091;28;20499;-81
2023/01/30 02:31:31;;;;;;;41.38;16.65;;;;;;;;;;5081168;28;20031;-80
2023/01/30 02:34:17;;;;;;;48.28;17.73;;;;;;;;;;5097743;28;20028;-80
2023/01/30 02:37:08;;;;;;;38.65;14.02;;;;;;;;;;5116087;28;20503;-81
2023/01/30 02:39:52;;;;;;;19.83;8.57;;;;;;;;;;5097126;28;20050;-81
2023/01/30 02:42:36;;;;;;;15.65;6.70;;;;;;;;;;5097990;28;20041;-81
2023/01/30 02:45:15;;;;;;;14.35;6.32;;;;;;;;;;5096920;28;20172;-81
2023/01/30 02:47:55;;;;;;;16.70;7.05;;;;;;;;;;5096858;28;20049;-81
2023/01/30 02:50:27;;;;;;;14.07;6.10;;;;;;;;;;5097119;28;20407;-81
2023/01/30 02:52:53;;;;;;;12.73;6.30;;;;;;;;;;5080237;28;20091;-81
2023/01/30 02:55:25;;;;;;;13.40;6.20;;;;;;;;;;5097448;28;20457;-81
2023/01/30 02:57:51;;;;;;;10.32;5.47;;;;;;;;;;5080439;28;20035;-81
2023/01/30 03:00:47;;;;;;;11.57;5.22;;;;;;;;;;5097234;28;20039;-82
2023/01/30 03:03:44;;;;;;;12.38;5.20;;;;;;;;;;5097104;28;20499;-81
2023/01/30 03:06:30;;;;;;;12.15;5.72;;;;;;;;;;5085171;28;20085;-81
2023/01/30 03:09:11;;;;;;;11.77;5.25;;;;;;;;;;5077387;28;20041;-81
2023/01/30 03:11:46;;;;;;;10.75;5.20;;;;;;;;;;5076803;28;20561;-81
2023/01/30 03:14:23;;;;;;;13.35;6.18;;;;;;;;;;5076463;28;20035;-81
2023/01/30 03:16:53;;;;;;;9.68;5.40;;;;;;;;;;5076653;28;20031;-81
2023/01/30 03:19:21;;;;;;;9.73;4.75;;;;;;;;;;5094642;28;20129;-81
2023/01/30 03:21:47;;;;;;;9.77;4.63;;;;;;;;;;5094830;28;20442;-81
2023/01/30 03:24:13;;;;;;;12.43;5.57;;;;;;;;;;5075975;28;20488;-81
2023/01/30 03:26:51;;;;;;;11.13;5.03;;;;;;;;;;5076598;28;20028;-81
2023/01/30 03:29:17;;;;;;;13.63;5.45;;;;;;;;;;5060208;28;20115;-81
2023/01/30 03:31:43;;;;;;;13.18;5.65;;;;;;;;;;5076618;28;20078;-81
2023/01/30 03:34:08;;;;;;;11.70;5.70;;;;;;;;;;5094047;28;20040;-81
2023/01/30 03:36:34;;;;;;;12.52;5.50;;;;;;;;;;5075993;28;20530;-80
2023/01/30 03:39:00;;;;;;;12.75;5.38;;;;;;;;;;5059545;28;20042;-80
2023/01/30 03:41:26;;;;;;;14.77;6.25;;;;;;;;;;5076039;28;20055;-81
2023/01/30 03:43:52;;;;;;;11.77;5.68;;;;;;;;;;5059198;28;20078;-80
2023/01/30 03:46:18;;;;;;;11.98;5.63;;;;;;;;;;5059617;28;20020;-80
2023/01/30 03:48:44;;;;;;;10.75;5.53;;;;;;;;;;5075873;28;20028;-80
2023/01/30 03:51:11;;;;;;;9.95;5.10;;;;;;;;;;5075800;28;20499;-80
2023/01/30 03:53:37;;;;;;;10.45;4.85;;;;;;;;;;5075852;28;20178;-80
2023/01/30 03:56:03;;;;;;;10.65;5.53;;;;;;;;;;5075454;28;20114;-79
2023/01/30 03:58:31;;;;;;;8.38;4.68;;;;;;;;;;5075884;28;20040;-81
2023/01/30 04:00:58;;;;;;;10.25;5.40;;;;;;;;;;5075628;28;20538;-81
2023/01/30 04:03:25;;;;;;;11.23;5.70;;;;;;;;;;5075591;28;20078;-81
2023/01/30 04:05:54;;;;;;;11.68;6.18;;;;;;;;;;5059153;28;20028;-81
2023/01/30 04:08:20;;;;;;;15.32;6.88;;;;;;;;;;5076159;28;20500;-81
2023/01/30 04:10:46;;;;;;;14.60;7.00;;;;;;;;;;5075767;28;20028;-80
2023/01/30 04:13:12;;;;;;;15.77;7.15;;;;;;;;;;5075706;28;20034;-80
2023/01/30 04:15:37;;;;;;;16.65;7.07;;;;;;;;;;5058806;28;20610;-81
2023/01/30 04:18:19;;;;;;;12.00;6.78;;;;;;;;;;5075567;28;20105;-81
2023/01/30 04:20:57;;;;;;;12.32;6.40;;;;;;;;;;5075393;28;20495;-81
2023/01/30 04:23:29;;;;;;;13.63;6.53;;;;;;;;;;5075746;28;20035;-81
2023/01/30 04:25:55;;;;;;;14.80;6.82;;;;;;;;;;5075517;28;20565;-81
2023/01/30 04:28:23;;;;;;;19.73;9.82;;;;;;;;;;5093844;28;20107;-81
2023/01/30 04:30:51;;;;;;;18.10;8.88;;;;;;;;;;5058583;28;20062;-81
2023/01/30 04:33:34;;;;;;;19.85;9.20;;;;;;;;;;5080500;28;20095;-80
2023/01/30 04:36:03;;;;;;;18.60;8.55;;;;;;;;;;5079982;28;20036;-81
2023/01/30 04:38:30;;;;;;;18.08;8.07;;;;;;;;;;5080704;28;20177;-81
2023/01/30 04:40:56;;;;;;;19.52;7.63;;;;;;;;;;5063450;28;20032;-81
2023/01/30 04:43:25;;;;;;;15.05;6.93;;;;;;;;;;5064206;28;20123;-81
2023/01/30 04:46:05;;;;;;;25.77;13.45;;;;;;;;;;5098103;28;20369;-81
2023/01/30 04:48:30;;;;;;;21.48;9.82;;;;;;;;;;5079920;28;20172;-81
2023/01/30 04:50:58;;;;;;;14.55;7.72;;;;;;;;;;5063240;28;20034;-81
2023/01/30 04:53:24;;;;;;;17.95;8.20;;;;;;;;;;5079653;28;20119;-81
2023/01/30 04:55:50;;;;;;;15.30;8.85;;;;;;;;;;5079047;28;20426;-80
2023/01/30 04:58:18;;;;;;;18.02;8.32;;;;;;;;;;5078438;28;20508;-80
2023/01/30 05:00:44;;;;;;;16.52;8.15;;;;;;;;;;5079048;28;20035;-81
2023/01/30 05:03:09;;;;;;;16.13;7.45;;;;;;;;;;5097160;28;20119;-80
2023/01/30 05:05:35;;;;;;;19.63;8.25;;;;;;;;;;5079484;28;20100;-81
2023/01/30 05:08:01;;;;;;;19.35;8.85;;;;;;;;;;5097648;28;20028;-81
2023/01/30 05:10:27;;;;;;;19.23;8.90;;;;;;;;;;5097109;28;20024;-81
2023/01/30 05:12:52;;;;;;;23.25;10.57;;;;;;;;;;5079015;28;20476;-80
2023/01/30 05:15:19;;;;;;;22.27;9.88;;;;;;;;;;5096625;28;20109;-81
2023/01/30 05:17:44;;;;;;;24.02;9.57;;;;;;;;;;5079054;28;20439;-81
2023/01/30 05:20:12;;;;;;;32.03;13.85;;;;;;;;;;5089296;22;20060;-87
2023/01/30 05:22:37;;;;;;;19.70;10.15;;;;;;;;;;5119113;28;20043;-86
2023/01/30 05:25:03;;;;;;;30.67;12.98;;;;;;;;;;5082918;28;20368;-85
2023/01/30 05:27:29;;;;;;;25.80;11.13;;;;;;;;;;5100654;28;20016;-86
2023/01/30 05:29:54;;;;;;;20.77;9.90;;;;;;;;;;5118378;28;20384;-85
2023/01/30 05:32:20;;;;;;;17.50;8.10;;;;;;;;;;5100507;28;20136;-85
2023/01/30 05:34:47;;;;;;;15.40;7.35;;;;;;;;;;5099958;28;20082;-85
2023/01/30 05:37:12;;;;;;;16.73;7.65;;;;;;;;;;5118138;28;20141;-87
2023/01/30 05:39:38;;;;;;;15.88;6.68;;;;;;;;;;5099729;28;20041;-86
2023/01/30 05:42:04;;;;;;;13.02;6.40;;;;;;;;;;5099621;28;20035;-84
2023/01/30 05:44:30;;;;;;;16.13;6.88;;;;;;;;;;5118531;28;20042;-86
2023/01/30 05:46:55;;;;;;;15.27;7.30;;;;;;;;;;5118684;28;20047;-86
2023/01/30 05:49:21;;;;;;;15.20;7.07;;;;;;;;;;5099533;28;20031;-85
2023/01/30 05:51:47;;;;;;;16.73;6.80;;;;;;;;;;5082754;28;20028;-86
2023/01/30 05:54:12;;;;;;;14.85;6.35;;;;;;;;;;5098962;28;20457;-86
2023/01/30 05:56:38;;;;;;;13.32;6.30;;;;;;;;;;5117512;28;20060;-86
2023/01/30 05:59:03;;;;;;;13.18;6.07;;;;;;;;;;5116543;28;20031;-83
2023/01/30 06:01:29;;;;;;;11.48;5.40;;;;;;;;;;5116040;28;20542;-84
2023/01/30 06:03:55;;;;;;;10.10;5.00;;;;;;;;;;5097536;28;20499;-85
2023/01/30 06:06:21;;;;;;;10.13;5.15;;;;;;;;;;5115555;28;20111;-83
2023/01/30 06:08:47;;;;;;;11.32;5.70;;;;;;;;;;5115592;28;20039;-86
2023/01/30 06:11:14;;;;;;;12.98;6.05;;;;;;;;;;5097060;28;20042;-84
2023/01/30 06:13:40;;;;;;;15.55;7.18;;;;;;;;;;5097787;28;20412;-85
2023/01/30 06:16:10;;;;;;;16.35;7.40;;;;;;;;;;5099422;28;20115;-83
2023/01/30 06:18:36;;;;;;;16.58;8.30;;;;;;;;;;5131173;28;20042;-85
2023/01/30 06:21:02;;;;;;;19.30;8.73;;;;;;;;;;5118125;28;20028;-85
2023/01/30 06:23:28;;;;;;;23.60;9.05;;;;;;;;;;5099257;28;20039;-87
2023/01/30 06:25:54;;;;;;;18.45;8.88;;;;;;;;;;5098830;28;20024;-86
2023/01/30 06:28:20;;;;;;;18.63;8.68;;;;;;;;;;5117300;28;20043;-86
2023/01/30 06:30:46;;;;;;;18.17;8.40;;;;;;;;;;5081956;28;20432;-87
2023/01/30 06:33:12;;;;;;;23.13;9.38;;;;;;;;;;5099143;28;20885;-85
2023/01/30 06:35:38;;;;;;;19.25;8.77;;;;;;;;;;5117213;28;20038;-84
2023/01/30 06:38:04;;;;;;;21.83;10.43;;;;;;;;;;5098845;28;20058;-85
2023/01/30 06:40:30;;;;;;;19.02;9.65;;;;;;;;;;5117161;28;20031;-85
2023/01/30 06:42:55;;;;;;;27.95;12.50;;;;;;;;;;5117912;28;20589;-86
2023/01/30 06:45:21;;;;;;;18.83;9.00;;;;;;;;;;5117822;28;20032;-84
2023/01/30 06:47:52;;;;;;;17.35;8.23;;;;;;;;;;5099293;28;20027;-84
2023/01/30 06:50:20;;;;;;;12.95;6.07;;;;;;;;;;5098701;28;20457;-86
2023/01/30 06:52:48;;;;;;;11.75;5.63;;;;;;;;;;5099641;28;20385;-85
2023/01/30 06:55:16;;;;;;;14.82;5.28;;;;;;;;;;5097643;28;20031;-85
2023/01/30 06:57:42;;;;;;;10.70;5.68;;;;;;;;;;5116490;28;20039;-86
2023/01/30 07:00:10;;;;;;;12.05;6.00;;;;;;;;;;5115926;28;20055;-86
2023/01/30 07:02:36;;;;;;;15.13;6.45;;;;;;;;;;5081387;28;20042;-86
2023/01/30 07:05:06;;;;;;;13.02;5.93;;;;;;;;;;5099238;28;20035;-83
2023/01/30 07:07:32;;;;;;;10.15;5.20;;;;;;;;;;5117247;28;20034;-85
2023/01/30 07:09:59;;;;;;;10.20;5.20;;;;;;;;;;5115231;28;20024;-84
2023/01/30 07:12:25;;;;;;;12.52;5.30;;;;;;;;;;5115051;28;20108;-85
2023/01/30 07:14:52;;;;;;;13.57;5.85;;;;;;;;;;5114667;28;20035;-86
2023/01/30 07:17:18;;;;;;;14.52;6.55;;;;;;;;;;5098152;28;20042;-85
2023/01/30 07:19:44;;;;;;;13.45;5.93;;;;;;;;;;5115997;28;20035;-84
2023/01/30 07:22:10;;;;;;;12.15;5.20;;;;;;;;;;5096693;28;20043;-84
2023/01/30 07:24:37;;;;;;;9.88;4.70;;;;;;;;;;5096810;28;20031;-85
2023/01/30 07:27:02;;;;;;;10.05;4.82;;;;;;;;;;5120443;28;20028;-85
2023/01/30 07:29:28;;;;;;;9.60;4.80;;;;;;;;;;5120105;28;20042;-86
2023/01/30 07:31:53;;;;;;;8.85;4.25;;;;;;;;;;5119269;28;20077;-87
2023/01/30 07:34:22;;;;;;;10.23;4.30;;;;;;;;;;5110435;28;20023;-87
2023/01/30 07:36:48;;;;;;;8.95;4.75;;;;;;;;;;5117562;28;20023;-88
2023/01/30 07:39:13;;;;;;;7.07;3.92;;;;;;;;;;5090461;28;20475;-86
2023/01/30 07:41:39;;;;;;;7.75;3.83;;;;;;;;;;5114233;28;20028;-86
2023/01/30 07:44:08;;;;;;;8.70;4.05;;;;;;;;;;5083137;28;20607;-86
2023/01/30 07:46:34;;;;;;;9.13;4.28;;;;;;;;;;5119551;28;20044;-85
2023/01/30 07:49:04;;;;;;;8.45;4.05;;;;;;;;;;5099198;28;20036;-83
2023/01/30 07:51:29;;;;;;;8.07;4.07;;;;;;;;;;5117645;28;20039;-87
2023/01/30 07:53:55;;;;;;;6.85;3.47;;;;;;;;;;5099356;28;20034;-86
2023/01/30 07:56:20;;;;;;;7.25;3.78;;;;;;;;;;5100253;28;20498;-85
2023/01/30 07:58:46;;;;;;;11.27;3.75;;;;;;;;;;5118150;28;20040;-86
2023/01/30 08:01:13;;;;;;;8.82;4.00;;;;;;;;;;5099692;28;20039;-86
2023/01/30 08:03:38;;;;;;;10.50;4.35;;;;;;;;;;5099899;28;20039;-85
2023/01/30 08:06:07;;;;;;;9.40;4.20;;;;;;;;;;5118176;28;20035;-85
2023/01/30 08:08:32;;;;;;;7.50;3.80;;;;;;;;;;5118283;28;20432;-84
2023/01/30 08:11:00;;;;;;;8.65;3.90;;;;;;;;;;5116683;28;20036;-83
2023/01/30 08:13:26;;;;;;;7.97;3.90;;;;;;;;;;5117682;28;20106;-83
2023/01/30 08:15:58;;;;;;;6.93;3.88;;;;;;;;;;5099081;28;20043;-85
2023/01/30 08:18:24;;;;;;;8.43;4.22;;;;;;;;;;5118690;28;20046;-84
2023/01/30 08:20:49;;;;;;;8.38;4.25;;;;;;;;;;5120977;28;20031;-85
2023/01/30 08:23:15;;;;;;;8.40;3.97;;;;;;;;;;5103020;28;20067;-88
2023/01/30 08:25:41;;;;;;;8.57;3.97;;;;;;;;;;5099780;28;20043;-85
2023/01/30 08:28:07;;;;;;;9.18;4.55;;;;;;;;;;5119138;28;20106;-83
2023/01/30 08:30:32;;;;;;;7.65;3.95;;;;;;;;;;5119604;28;20415;-86
2023/01/30 08:32:58;;;;;;;8.65;4.32;;;;;;;;;;5119927;28;20028;-86
2023/01/30 08:35:23;;;;;;;9.65;4.65;;;;;;;;;;5100515;28;20032;-85
2023/01/30 08:37:49;;;;;;;8.80;4.30;;;;;;;;;;5101720;28;20040;-86
2023/01/30 08:40:14;;;;;;;7.20;4.32;;;;;;;;;;5099750;28;20039;-85
2023/01/30 08:42:44;;;;;;;8.20;4.70;;;;;;;;;;5115304;28;20044;-85
2023/01/30 08:45:10;;;;;;;8.98;4.30;;;;;;;;;;5094980;28;20035;-84
2023/01/30 08:47:35;;;;;;;10.02;4.20;;;;;;;;;;5094595;28;20030;-84
2023/01/30 08:50:01;;;;;;;8.18;3.78;;;;;;;;;;5123800;28;20083;-85
2023/01/30 08:52:27;;;;;;;7.43;3.80;;;;;;;;;;5098322;28;20032;-85
2023/01/30 08:54:52;;;;;;;7.18;3.90;;;;;;;;;;5097116;28;20060;-84
2023/01/30 08:57:18;;;;;;;8.35;3.88;;;;;;;;;;5116490;28;20065;-85
2023/01/30 08:59:44;;;;;;;6.47;3.78;;;;;;;;;;5097711;28;20411;-85
2023/01/30 09:02:11;;;;;;;8.02;3.95;;;;;;;;;;5114737;28;20035;-85
2023/01/30 09:04:36;;;;;;;11.43;3.90;;;;;;;;;;5114669;28;20368;-86
2023/01/30 09:07:02;;;;;;;6.45;2.80;;;;;;;;;;5096660;28;20528;-85
2023/01/30 09:09:29;;;;;;;8.05;2.95;;;;;;;;;;5114442;28;20034;-85
2023/01/30 09:11:54;;;;;;;6.55;3.28;;;;;;;;;;5096457;28;20039;-85
2023/01/30 09:14:20;;;;;;;7.43;2.90;;;;;;;;;;5115163;28;20065;-85
2023/01/30 09:16:47;;;;;;;7.13;2.80;;;;;;;;;;5098362;28;20055;-88
2023/01/30 09:19:13;;;;;;;6.18;2.38;;;;;;;;;;5101393;28;20040;-85
2023/01/30 09:21:38;;;;;;;8.10;2.90;;;;;;;;;;5118871;28;20035;-84
2023/01/30 09:24:05;;;;;;;5.90;3.08;;;;;;;;;;5118392;28;20040;-83
2023/01/30 09:26:31;;;;;;;6.25;3.00;;;;;;;;;;5119364;28;20028;-85
2023/01/30 09:28:56;;;;;;;7.15;3.22;;;;;;;;;;5119526;28;20062;-85
2023/01/30 09:31:22;;;;;;;6.40;3.60;;;;;;;;;;5120618;28;20119;-84
2023/01/30 09:33:47;;;;;;;5.65;3.20;;;;;;;;;;5121251;28;20031;-85
2023/01/30 09:36:13;;;;;;;4.22;1.98;;;;;;;;;;5117495;28;20034;-84
2023/01/30 09:38:38;;;;;;;6.20;2.65;;;;;;;;;;5119312;28;20533;-86
2023/01/30 09:41:24;;;;;;;3.60;1.73;;;;;;;;;;5100253;28;20063;-85
2023/01/30 09:43:58;;;;;;;3.67;1.90;;;;;;;;;;5118323;28;20032;-84
2023/01/30 09:46:32;;;;;;;3.60;1.90;;;;;;;;;;5102033;28;20099;-84
2023/01/30 09:49:07;;;;;;;3.97;1.80;;;;;;;;;;5119466;28;20047;-85
2023/01/30 09:51:42;;;;;;;4.18;2.40;;;;;;;;;;5118197;28;20039;-84
2023/01/30 09:54:30;;;;;;;10.18;3.10;;;;;;;;;;5100448;28;20119;-84
2023/01/30 09:57:09;;;;;;;5.35;2.90;;;;;;;;;;5099745;28;20484;-85
2023/01/30 09:59:47;;;;;;;6.93;2.75;;;;;;;;;;5116656;28;20484;-85
2023/01/30 10:02:38;;;;;;;3.65;2.00;;;;;;;;;;5115741;28;20502;-84
2023/01/30 10:05:04;;;;;;;4.05;1.92;;;;;;;;;;5128052;28;20036;-85
2023/01/30 10:07:56;;;;;;;4.03;1.90;;;;;;;;;;5118155;28;20019;-84
2023/01/30 10:10:34;;;;;;;2.72;1.17;;;;;;;;;;5117457;28;20035;-84
2023/01/30 10:13:28;;;;;;;2.00;1.20;;;;;;;;;;5099246;28;20320;-85
2023/01/30 10:15:59;;;;;;;6.75;2.00;;;;;;;;;;5087513;28;20048;-84
2023/01/30 10:18:24;;;;;;;3.63;1.80;;;;;;;;;;5116399;28;20588;-84
2023/01/30 10:21:05;;;;;;;2.90;1.40;;;;;;;;;;5099251;28;20059;-84
2023/01/30 10:23:49;;;;;;;5.40;1.80;;;;;;;;;;5098870;28;20511;-84
2023/01/30 10:26:18;;;;;;;3.13;1.83;;;;;;;;;;5117000;28;20027;-84
2023/01/30 10:28:53;;;;;;;2.35;1.50;;;;;;;;;;5116544;28;20055;-84
2023/01/30 10:31:25;;;;;;;3.50;1.60;;;;;;;;;;5117528;28;20038;-84
2023/01/30 10:34:03;;;;;;;7.57;3.00;;;;;;;;;;5117000;28;20114;-84
2023/01/30 10:36:44;;;;;;;3.33;1.80;;;;;;;;;;5119304;28;20499;-84
2023/01/30 10:39:28;;;;;;;4.15;2.22;;;;;;;;;;5098771;28;20032;-84
2023/01/30 10:42:18;;;;;;;7.72;2.50;;;;;;;;;;5098382;28;20502;-84
2023/01/30 10:44:44;;;;;;;7.70;3.22;;;;;;;;;;5098011;28;20407;-84
2023/01/30 10:47:34;;;;;;;6.85;2.80;;;;;;;;;;5098527;28;20463;-85
2023/01/30 10:50:19;;;;;;;7.70;2.35;;;;;;;;;;5097671;28;20396;-85
2023/01/30 10:52:58;;;;;;;6.00;1.98;;;;;;;;;;5115888;28;20039;-84
2023/01/30 10:55:51;;;;;;;3.63;1.52;;;;;;;;;;5097629;28;20039;-83
2023/01/30 10:58:29;;;;;;;7.10;2.60;;;;;;;;;;5115674;28;20042;-84
2023/01/30 11:00:54;;;;;;;2.33;1.15;;;;;;;;;;5115615;28;20028;-84
2023/01/30 11:03:38;;;;;;;2.22;1.20;;;;;;;;;;5115852;28;20514;-83
2023/01/30 11:06:16;;;;;;;1.42;0.82;;;;;;;;;;5115258;28;20040;-84
2023/01/30 11:08:42;;;;;;;1.95;0.93;;;;;;;;;;5097740;28;20046;-86
2023/01/30 11:11:41;;;;;;;2.33;1.30;;;;;;;;;;5100686;28;20035;-86
2023/01/30 11:14:09;;;;;;;1.10;0.75;;;;;;;;;;5118327;28;20063;-83
2023/01/30 11:16:52;;;;;;;1.88;0.95;;;;;;;;;;5097605;28;20036;-84
2023/01/30 11:19:22;;;;;;;2.40;1.02;;;;;;;;;;5110096;28;20070;-83
2023/01/30 11:21:59;;;;;;;0.90;0.60;;;;;;;;;;5139797;22;20047;-81
2023/01/30 11:24:30;;;;;;;2.78;1.30;;;;;;;;;;5103391;28;20096;-82
2023/01/30 11:27:15;;;;;;;1.77;1.10;;;;;;;;;;5121608;28;20042;-82
2023/01/30 11:29:41;;;;;;;0.98;0.63;;;;;;;;;;5120575;28;20051;-82
2023/01/30 11:32:26;;;;;;;1.95;0.73;;;;;;;;;;5103205;28;20035;-82
2023/01/30 11:35:06;;;;;;;1.40;0.88;;;;;;;;;;5120978;28;20039;-82
2023/01/30 11:37:34;;;;;;;1.65;0.90;;;;;;;;;;5121931;28;20073;-82
2023/01/30 11:40:27;;;;;;;1.23;0.80;;;;;;;;;;5120506;28;20040;-80
2023/01/30 11:43:05;;;;;;;0.77;0.60;;;;;;;;;;5121764;28;20058;-82
2023/01/30 11:45:37;;;;;;;1.48;0.82;;;;;;;;;;5100958;28;20047;-82
2023/01/30 11:48:26;;;;;;;1.20;0.80;;;;;;;;;;5120830;28;20110;-82
2023/01/30 11:51:01;;;;;;;1.02;0.65;;;;;;;;;;5119726;28;20040;-82
2023/01/30 11:53:55;;;;;;;0.98;0.70;;;;;;;;;;5102108;28;20055;-82
2023/01/30 11:56:25;;;;;;;2.15;0.65;;;;;;;;;;5117726;28;20357;-81
2023/01/30 11:58:57;;;;;;;1.63;0.93;;;;;;;;;;5100579;28;20039;-82
2023/01/30 12:01:34;;;;;;;1.33;0.82;;;;;;;;;;5118029;28;20051;-86
2023/01/30 12:04:01;;;;;;;0.73;0.70;;;;;;;;;;5117608;28;20446;-82
2023/01/30 12:06:32;;;;;;;3.35;0.80;;;;;;;;;;5118231;28;20106;-82
2023/01/30 12:08:58;;;;;;;0.90;0.65;;;;;;;;;;5099264;28;20028;-84
2023/01/30 12:11:35;;;;;;;1.38;0.85;;;;;;;;;;5098843;28;20388;-82
2023/01/30 12:14:39;;;;;;;0.50;0.50;;;;;;;;;;5118952;28;20484;-82
2023/01/30 12:17:20;;;;;;;1.60;0.80;;;;;;;;;;5078638;28;20092;-82
2023/01/30 12:20:11;;;;;;;1.05;0.70;;;;;;;;;;5098441;28;20288;-82
2023/01/30 12:23:10;;;;;;;1.05;0.70;;;;;;;;;;5116108;28;20043;-81
2023/01/30 12:25:47;;;;;;;1.02;0.63;;;;;;;;;;5115491;28;20091;-81
2023/01/30 12:28:34;;;;;;;0.65;0.57;;;;;;;;;;5115801;28;20067;-82
2023/01/30 12:31:09;;;;;;;0.63;0.50;;;;;;;;;;5097599;28;20036;-82
2023/01/30 12:33:35;;;;;;;1.30;0.70;;;;;;;;;;5121458;28;20031;-81
2023/01/30 12:36:28;;;;;;;0.75;0.57;;;;;;;;;;5118563;28;20573;-82
2023/01/30 12:39:18;;;;;;;0.57;0.50;;;;;;;;;;5117469;28;20096;-82
2023/01/30 12:42:02;;;;;;;2.22;0.60;;;;;;;;;;5117938;28;20067;-82
2023/01/30 12:44:33;;;;;;;;;;;;;;;;;;5117903;28;20035;-80
2023/01/30 12:47:20;;;;;;;0.77;0.43;;;;;;;;;;5098892;28;19912;-82
2023/01/30 12:49:52;;;;;;;0.82;0.50;;;;;;;;;;5117184;28;20445;-81
2023/01/30 12:52:45;;;;;;;1.17;0.57;;;;;;;;;;5120594;28;20039;-82
2023/01/30 12:55:26;;;;;;;0.70;0.40;;;;;;;;;;5103187;28;20031;-82
2023/01/30 12:58:16;;;;;;;0.70;0.32;;;;;;;;;;5101279;28;20039;-85
2023/01/30 13:01:01;;;;;;;0.95;0.30;;;;;;;;;;5119623;28;20055;-85
2023/01/30 13:03:39;;;;;;;0.55;0.40;;;;;;;;;;5118749;28;20032;-84
2023/01/30 13:06:14;;;;;;;0.30;0.30;;;;;;;;;;5119158;28;20032;-84
2023/01/30 13:09:17;;;;;;;0.52;0.30;;;;;;;;;;5118890;28;20059;-85
2023/01/30 13:11:46;;;;;;;0.30;0.30;;;;;;;;;;5100799;28;20038;-85
2023/01/30 13:14:29;;;;;;;0.30;0.30;;;;;;;;;;5118383;28;20043;-84
2023/01/30 13:17:11;;;;;;;;;;;;;;;;;;5119347;28;20035;-83
2023/01/30 13:19:48;;;;;;;0.20;0.20;;;;;;;;;;5118817;28;19911;-84
2023/01/30 13:22:26;;;;;;;0.82;0.40;;;;;;;;;;5118510;28;20054;-84
2023/01/30 13:25:18;;;;;;;0.30;0.30;;;;;;;;;;5118296;28;20157;-85
2023/01/30 13:28:02;;;;;;;0.85;0.30;;;;;;;;;;5106651;28;20063;-84
2023/01/30 13:30:29;;;;;;;0.45;0.30;;;;;;;;;;5118013;28;20032;-83
2023/01/30 13:33:03;;;;;;;2.45;0.20;;;;;;;;;;5099387;28;20056;-84
2023/01/30 13:35:39;;;;;;;0.35;0.35;;;;;;;;;;5099494;28;20483;-84
2023/01/30 13:38:06;;;;;;;0.75;0.30;;;;;;;;;;5118158;28;20395;-83
2023/01/30 13:40:38;;;;;;;0.20;0.20;;;;;;;;;;5117401;28;20035;-84
2023/01/30 13:43:06;;;;;;;0.63;0.30;;;;;;;;;;5082657;28;20126;-84
2023/01/30 13:45:35;;;;;;;2.53;0.40;;;;;;;;;;5117571;28;20040;-84
2023/01/30 13:48:36;;;;;;;1.70;0.45;;;;;;;;;;5098704;28;20089;-84
2023/01/30 13:51:35;;;;;;;0.43;0.30;;;;;;;;;;5118045;28;20511;-83
2023/01/30 13:54:19;;;;;;;0.52;0.40;;;;;;;;;;5098973;28;20034;-80
2023/01/30 13:56:44;;;;;;;;;;;;;;;;;;5082620;28;20403;-81
2023/01/30 13:59:28;;;;;;;0.25;0.25;;;;;;;;;;5116882;28;19923;-83
2023/01/30 14:02:03;;;;;;;0.43;0.40;;;;;;;;;;5099369;28;20031;-83
2023/01/30 14:04:41;;;;;;;0.20;0.20;;;;;;;;;;5117132;28;20031;-83
2023/01/30 14:07:21;;;;;;;0.75;0.30;;;;;;;;;;5117519;28;20407;-83
2023/01/30 14:10:08;;;;;;;0.63;0.40;;;;;;;;;;5117724;28;20053;-84
2023/01/30 14:12:42;;;;;;;0.32;0.30;;;;;;;;;;5099117;28;20039;-85
2023/01/30 14:15:14;;;;;;;1.30;0.60;;;;;;;;;;5098785;28;20078;-83
2023/01/30 14:18:21;;;;;;;0.52;0.35;;;;;;;;;;5119376;28;20049;-85
2023/01/30 14:20:49;;;;;;;0.73;0.60;;;;;;;;;;5108439;28;20051;-82
2023/01/30 14:23:27;;;;;;;1.40;0.98;;;;;;;;;;5101248;28;20035;-82
2023/01/30 14:25:56;;;;;;;2.35;1.15;;;;;;;;;;5101621;28;20053;-81
2023/01/30 14:28:22;;;;;;;1.60;0.88;;;;;;;;;;5101836;28;20035;-82
2023/01/30 14:31:03;;;;;;;1.88;1.17;;;;;;;;;;5119584;28;20491;-82
2023/01/30 14:33:35;;;;;;;6.97;2.50;;;;;;;;;;5102135;28;20015;-81
2023/01/30 14:36:00;;;;;;;0.70;0.52;;;;;;;;;;5106140;28;20032;-82
2023/01/30 14:38:26;;;;;;;1.50;0.60;;;;;;;;;;5108183;28;20639;-82
2023/01/30 14:40:58;;;;;;;0.50;0.50;;;;;;;;;;5107505;28;20039;-80
2023/01/30 14:43:24;;;;;;;0.90;0.30;;;;;;;;;;5108303;28;20040;-81
2023/01/30 14:46:19;;;;;;;1.33;0.28;;;;;;;;;;5109300;28;20050;-81
2023/01/30 14:48:52;;;;;;;3.55;0.47;;;;;;;;;;5108824;28;20043;-80
2023/01/30 14:51:41;;;;;;;0.35;0.20;;;;;;;;;;5126978;28;20032;-80
2023/01/30 14:54:10;;;;;;;0.35;0.35;;;;;;;;;;5125539;28;20035;-83
2023/01/30 14:57:02;;;;;;;1.42;0.38;;;;;;;;;;5085703;28;20040;-81
2023/01/30 14:59:35;;;;;;;0.43;0.30;;;;;;;;;;5102941;28;20034;-80
2023/01/30 15:02:13;;;;;;;0.45;0.40;;;;;;;;;;5104602;28;20039;-83
2023/01/30 15:04:50;;;;;;;0.90;0.30;;;;;;;;;;5124288;28;20066;-82
2023/01/30 15:07:22;;;;;;;0.30;0.22;;;;;;;;;;5107954;28;20050;-82
2023/01/30 15:10:01;;;;;;;0.40;0.40;;;;;;;;;;5122603;28;20126;-82